Latest Weather Observations for Gannett Cay

IDQ60801

Issued at 6:22 pm EST Friday 21 September 2018 (issued every 10 minutes, with the page automatically refreshed every 10 minutes)

About weather observations | Map of weather stations | Latest weather observations for QLD | Other Formats
Station Details ID: 200831 Name: GANNET CAY Lat: -21.98 Lon: 152.47 Height: 2.3 m
Data from the previous 72 hours. | See also: Recent months for locations in Queensland
Date/Time
EST
Temp
°C
App
Temp
°C
Dew
Point
°C
Rel
Hum
%
Delta-T
°C
Wind Press
QNH
hPa
Press
MSL
hPa
Rain since
9am
mm
Dir  Spd
km/h
Gust
km/h
Spd
kts
Gust
kts
21/06:00pm 22.1 - - - - SE 44 52 24 28 1020.1 - -
21/05:30pm 22.1 - - - - SE 48 54 26 29 1019.8 - -
21/05:29pm 22.1 - - - - SE 46 - 25 - - 1019.9 -
21/05:00pm 22.1 - - - - SE 50 57 27 31 1019.3 - -
21/04:30pm 22.5 - - - - SE 46 56 25 30 1019.1 - -
21/04:29pm 22.4 - - - - SE 46 - 25 - - 1019.2 -
21/04:00pm 22.4 - - - - SE 48 54 26 29 1018.7 - -
21/03:30pm 22.5 - - - - SE 48 57 26 31 1018.7 - -
21/03:29pm 22.4 - - - - SE 48 - 26 - - 1018.8 -
21/03:00pm 22.6 - - - - SE 48 56 26 30 1018.5 - -
21/02:30pm 22.7 - - - - SSE 48 57 26 31 1018.3 - -
21/02:29pm 22.4 - - - - SSE 48 - 26 - - 1018.4 -
21/02:00pm 22.6 - - - - SSE 48 56 26 30 1018.3 - -
21/01:30pm 22.5 - - - - SSE 48 56 26 30 1018.5 - -
21/01:29pm 22.7 - - - - SSE 48 - 26 - - 1018.6 -
21/01:00pm 22.7 - - - - SSE 46 56 25 30 1018.6 - -
21/12:30pm 22.9 - - - - SSE 46 54 25 29 1018.7 - -
21/12:29pm 23.1 - - - - SSE 46 - 25 - - 1018.9 -
21/12:00pm 22.9 - - - - SSE 48 56 26 30 1018.9 - -
21/11:30am 22.6 - - - - S 44 52 24 28 1019.3 - -
21/11:29am 22.5 - - - - S 44 - 24 - - 1019.4 -
21/11:00am 22.0 - - - - S 48 54 26 29 1019.7 - -
21/10:30am 21.9 - - - - S 48 54 26 29 1020.0 - -
21/10:29am 21.8 - - - - S 48 - 26 - - 1020.1 -
21/10:00am 21.9 - - - - S 48 56 26 30 1019.9 - -
21/09:30am 21.8 - - - - S 46 56 25 30 1020.1 - -
21/09:29am 21.7 - - - - S 48 - 26 - - 1020.1 -
21/09:00am 21.7 - - - - S 46 54 25 29 1020.0 - -
21/08:30am 21.8 - - - - S 50 57 27 31 1019.8 - -
21/08:29am 21.6 - - - - S 50 - 27 - - 1019.9 -
21/08:00am 21.6 - - - - S 52 61 28 33 1019.4 - -
21/07:30am 21.6 - - - - S 50 57 27 31 1019.0 - -
21/07:29am 21.6 - - - - S 50 - 27 - - 1019.1 -
21/07:00am 21.5 - - - - S 52 59 28 32 1018.7 - -
21/06:30am 21.6 - - - - S 46 56 25 30 1018.4 - -
21/06:29am 21.6 - - - - S 48 - 26 - - 1018.5 -
21/06:00am 21.6 - - - - S 48 57 26 31 1018.2 - -
21/05:30am 21.8 - - - - S 50 57 27 31 1017.6 - -
21/05:29am 21.8 - - - - S 50 - 27 - - 1017.7 -
21/05:00am 21.9 - - - - S 48 54 26 29 1017.3 - -
21/04:30am 22.2 - - - - S 46 56 25 30 1017.0 - -
21/04:29am 22.2 - - - - S 46 - 25 - - 1017.1 -
21/04:00am 22.3 - - - - S 35 41 19 22 1016.8 - -
21/03:30am 22.1 - - - - SSW 28 32 15 17 1016.5 - -
21/03:29am 22.1 - - - - SSW 28 - 15 - - 1016.6 -
21/03:00am 22.1 - - - - SSW 26 30 14 16 1016.4 - -
21/02:30am 22.1 - - - - SSW 26 32 14 17 1016.3 - -
21/02:29am 22.1 - - - - SSW 26 - 14 - - 1016.4 -
21/02:00am 22.1 - - - - N 4 17 2 9 1016.3 - -
21/01:30am 22.1 - - - - N 2 9 1 5 1016.0 - -
21/01:29am 22.0 - - - - N 2 - 1 - - 1016.1 -
21/01:00am 22.1 - - - - N 9 11 5 6 1015.8 - -
21/12:30am 22.1 - - - - N 15 19 8 10 1015.7 - -
21/12:29am 22.1 - - - - N 17 - 9 - - 1015.8 -
21/12:00am 22.3 - - - - N 19 20 10 11 1015.8 - -
 
Date/Time
EST
Temp
°C
App
Temp
°C
Dew
Point
°C
Rel
Hum
%
Delta-T
°C
Wind Press
QNH
hPa
Press
MSL
hPa
Rain since
9am
mm
Dir  Spd
km/h
Gust
km/h
Spd
kts
Gust
kts
20/11:30pm 22.1 - - - - N 22 24 12 13 1015.7 - -
20/11:29pm 22.0 - - - - N 22 - 12 - - 1015.8 -
20/11:00pm 22.1 - - - - N 22 24 12 13 1015.9 - -
20/10:30pm 22.0 - - - - NNE 19 22 10 12 1015.9 - -
20/10:29pm 21.9 - - - - NNE 19 - 10 - - 1016.1 -
20/10:00pm 22.1 - - - - NNE 19 22 10 12 1016.0 - -
20/09:30pm 22.1 - - - - NNE 17 20 9 11 1016.2 - -
20/09:29pm 22.1 - - - - NNE 17 - 9 - - 1016.3 -
20/09:00pm 22.1 - - - - NNE 22 24 12 13 1016.0 - -
20/08:30pm 22.1 - - - - NNE 13 15 7 8 1016.0 - -
20/08:29pm 22.1 - - - - NNE 15 - 8 - - 1016.1 -
20/08:00pm 22.1 - - - - ENE 4 9 2 5 1016.0 - -
20/07:30pm 21.9 - - - - CALM 0 0 0 0 1015.7 - -
20/07:29pm 21.9 - - - - CALM 0 - 0 - - 1015.8 -
20/07:00pm 22.1 - - - - ESE 6 7 3 4 1015.2 - -
20/06:30pm 22.4 - - - - S 9 9 5 5 1015.1 - -
20/06:29pm 22.2 - - - - S 9 - 5 - - 1015.2 -
20/06:00pm 22.2 - - - - SSW 7 9 4 5 1014.7 - -
20/05:30pm 22.4 - - - - SSW 11 13 6 7 1014.4 - -
20/05:29pm 22.3 - - - - SSW 11 - 6 - - 1014.5 -
20/05:00pm 22.5 - - - - SSW 9 15 5 8 1014.1 - -
20/04:30pm 22.6 - - - - SSW 11 15 6 8 1013.8 - -
20/04:29pm 22.6 - - - - SSW 11 - 6 - - 1013.9 -
20/04:00pm 22.7 - - - - SSW 13 15 7 8 1013.5 - -
20/03:30pm 23.0 - - - - SSW 11 13 6 7 1013.4 - -
20/03:29pm 22.8 - - - - SSW 11 - 6 - - 1013.5 -
20/03:00pm 22.7 - - - - SW 9 13 5 7 1013.5 - -
20/02:30pm 22.8 - - - - SW 11 13 6 7 1013.6 - -
20/02:29pm 22.7 - - - - SW 11 - 6 - - 1013.7 -
20/02:00pm 22.7 - - - - WSW 13 15 7 8 1014.1 - -
20/01:30pm 22.6 - - - - WSW 15 19 8 10 1014.6 - -
20/01:29pm 22.7 - - - - WSW 15 - 8 - - 1014.7 -
20/01:00pm 22.8 - - - - WSW 13 17 7 9 1015.1 - -
20/12:30pm 22.8 - - - - WSW 15 17 8 9 1015.4 - -
20/12:29pm 22.8 - - - - WSW 15 - 8 - - 1015.5 -
20/12:00pm 22.9 - - - - W 13 15 7 8 1015.7 - -
20/11:30am 22.7 - - - - W 11 15 6 8 1016.1 - -
20/11:29am 22.8 - - - - W 11 - 6 - - 1016.2 -
20/11:00am 22.8 - - - - WNW 7 11 4 6 1016.4 - -
20/10:30am 22.9 - - - - N 9 11 5 6 1016.0 - -
20/10:29am 22.8 - - - - N 9 - 5 - - 1016.1 -
20/10:00am 22.7 - - - - N 9 11 5 6 1015.9 - -
20/09:30am 22.7 - - - - N 9 11 5 6 1015.9 - -
20/09:29am 22.6 - - - - N 9 - 5 - - 1016.0 -
20/09:00am 22.6 - - - - N 11 15 6 8 1015.9 - -
20/08:30am 22.6 - - - - NNE 11 15 6 8 1015.7 - -
20/08:29am 22.5 - - - - NNE 11 - 6 - - 1015.8 -
20/08:00am 22.5 - - - - NNE 13 17 7 9 1015.6 - -
20/07:30am 22.3 - - - - N 11 11 6 6 1015.4 - -
20/07:29am 22.3 - - - - N 11 - 6 - - 1015.5 -
20/07:00am 22.4 - - - - NNE 9 13 5 7 1015.1 - -
20/06:30am 22.2 - - - - NNE 9 13 5 7 1014.8 - -
20/06:29am 22.4 - - - - NNE 9 - 5 - - 1014.9 -
20/06:00am 22.1 - - - - NE 11 13 6 7 1014.7 - -
20/05:30am 22.0 - - - - NNE 11 15 6 8 1014.5 - -
20/05:29am 22.0 - - - - NNE 11 - 6 - - 1014.6 -
20/05:00am 22.0 - - - - NE 11 13 6 7 1014.2 - -
20/04:30am 22.0 - - - - ENE 11 13 6 7 1013.9 - -
20/04:29am 22.0 - - - - ENE 11 - 6 - - 1014.0 -
20/04:00am 21.9 - - - - NE 7 11 4 6 1013.8 - -
20/03:30am 22.0 - - - - NE 9 13 5 7 1013.8 - -
20/03:29am 22.0 - - - - NE 9 - 5 - - 1013.9 -
20/03:00am 22.1 - - - - NE 13 15 7 8 1014.0 - -
20/02:30am 22.2 - - - - NNE 17 20 9 11 1014.2 - -
20/02:29am 22.1 - - - - NNE 17 - 9 - - 1014.3 -
20/02:00am 22.1 - - - - NE 17 20 9 11 1014.5 - -
20/01:30am 22.2 - - - - NNE 17 20 9 11 1014.8 - -
20/01:29am 22.2 - - - - NE 17 - 9 - - 1014.9 -
20/01:00am 22.1 - - - - NE 11 15 6 8 1015.3 - -
20/12:30am 22.0 - - - - ENE 7 9 4 5 1015.6 - -
20/12:29am 22.1 - - - - ENE 7 - 4 - - 1015.7 -
20/12:00am 22.1 - - - - E 7 11 4 6 1016.0 - -
 
Date/Time
EST
Temp
°C
App
Temp
°C
Dew
Point
°C
Rel
Hum
%
Delta-T
°C
Wind Press
QNH
hPa
Press
MSL
hPa
Rain since
9am
mm
Dir  Spd
km/h
Gust
km/h
Spd
kts
Gust
kts
19/11:30pm 22.1 - - - - E 11 15 6 8 1016.2 - -
19/11:29pm 22.1 - - - - E 11 - 6 - - 1016.3 -
19/11:00pm 22.2 - - - - ENE 9 13 5 7 1016.3 - -
19/10:30pm 22.0 - - - - E 7 9 4 5 1016.3 - -
19/10:29pm 22.1 - - - - E 7 - 4 - - 1016.4 -
19/10:00pm 21.9 - - - - ESE 7 9 4 5 1016.4 - -
19/09:30pm 22.1 - - - - E 9 11 5 6 1016.4 - -
19/09:29pm 22.0 - - - - E 9 - 5 - - 1016.5 -
19/09:00pm 22.1 - - - - E 13 17 7 9 1016.2 - -
19/08:30pm 22.2 - - - - E 13 15 7 8 1015.9 - -
19/08:29pm 22.1 - - - - E 13 - 7 - - 1016.0 -
19/08:00pm 22.1 - - - - E 13 15 7 8 1015.7 - -
19/07:30pm 22.2 - - - - E 13 17 7 9 1015.4 - -
19/07:29pm 22.2 - - - - E 13 - 7 - - 1015.5 -
19/07:00pm 22.1 - - - - ENE 19 20 10 11 1015.0 - -
19/06:30pm 22.1 - - - - E 19 20 10 11 1014.8 - -
19/06:29pm 22.1 - - - - E 19 - 10 - - 1014.9 -
19/06:00pm 22.1 - - - - E 17 20 9 11 1014.6 - -
19/05:30pm 22.3 - - - - E 17 19 9 10 1014.4 - -
19/05:29pm 22.3 - - - - E 17 - 9 - - 1014.5 -
19/05:00pm 22.5 - - - - E 17 20 9 11 1014.3 - -
19/04:30pm 22.8 - - - - ENE 17 20 9 11 1014.2 - -
19/04:29pm 22.8 - - - - ENE 17 - 9 - - 1014.2 -
19/04:00pm 22.9 - - - - E 9 15 5 8 1014.0 - -
19/03:30pm 22.8 - - - - E 9 13 5 7 1014.0 - -
19/03:29pm 22.8 - - - - E 9 - 5 - - 1014.1 -
19/03:00pm 23.3 - - - - ESE 9 11 5 6 1014.3 - -
19/02:30pm 23.5 - - - - SE 9 11 5 6 1014.7 - -
19/02:29pm 23.4 - - - - SE 9 - 5 - - 1014.8 -
19/02:00pm 23.2 - - - - SSE 11 13 6 7 1015.0 - -
19/01:30pm 22.9 - - - - SSE 15 19 8 10 1015.3 - -
19/01:29pm 23.0 - - - - SSE 15 - 8 - - 1015.4 -
19/01:00pm 23.0 - - - - SSE 13 17 7 9 1015.5 - -
19/12:30pm 23.1 - - - - SSE 11 15 6 8 1016.0 - -
19/12:29pm 23.1 - - - - SSE 11 - 6 - - 1016.1 -
19/12:00pm 22.9 - - - - S 15 17 8 9 1016.4 - -
19/11:30am 22.8 - - - - SSE 13 19 7 10 1017.1 - -
19/11:29am 22.8 - - - - SSE 15 - 8 - - 1017.2 -
19/11:00am 22.5 - - - - SSE 17 19 9 10 1017.3 - -
19/10:30am 23.0 - - - - SE 11 13 6 7 1017.6 - -
19/10:29am 23.0 - - - - SE 11 - 6 - - 1017.8 -
19/10:00am 22.9 - - - - ESE 11 13 6 7 1018.0 - -
19/09:30am 22.9 - - - - E 13 15 7 8 1018.3 - -
19/09:29am 22.9 - - - - E 13 - 7 - - 1018.4 -
19/09:00am 22.5 - - - - ESE 15 19 8 10 1018.3 - -
19/08:30am 22.7 - - - - ESE 13 15 7 8 1018.4 - -
19/08:29am 22.6 - - - - ESE 13 - 7 - - 1018.5 -
19/08:00am 22.5 - - - - ESE 15 17 8 9 1018.2 - -
19/07:30am 22.5 - - - - E 13 15 7 8 1018.0 - -
19/07:29am 22.6 - - - - E 13 - 7 - - 1018.1 -
19/07:00am 22.5 - - - - E 13 15 7 8 1017.8 - -
19/06:30am 22.3 - - - - E 11 13 6 7 1017.5 - -
19/06:29am 22.3 - - - - E 11 - 6 - - 1017.6 -
19/06:00am 21.8 - - - - E 13 15 7 8 1017.2 - -
19/05:30am 21.6 - - - - ESE 20 24 11 13 1017.1 - -
19/05:29am 21.7 - - - - ESE 20 - 11 - - 1017.2 -
19/05:00am 21.5 - - - - ESE 20 26 11 14 1016.9 - -
19/04:30am 21.4 - - - - SE 20 24 11 13 1016.6 - -
19/04:29am 21.4 - - - - SE 20 - 11 - - 1016.7 -
19/04:00am 21.2 - - - - SE 13 17 7 9 1016.3 - -
19/03:30am 21.2 - - - - ESE 13 15 7 8 1016.3 - -
19/03:29am 21.3 - - - - ESE 13 - 7 - - 1016.4 -
19/03:00am 21.4 - - - - ESE 22 26 12 14 1016.3 - -
19/02:30am 21.6 - - - - E 22 26 12 14 1016.6 - -
19/02:29am 21.5 - - - - E 22 - 12 - - 1016.7 -
19/02:00am 21.3 - - - - ESE 17 19 9 10 1016.9 - -
19/01:30am 21.5 - - - - E 19 26 10 14 1017.0 - -
19/01:29am 21.5 - - - - E 19 - 10 - - 1017.1 -
19/01:00am 21.3 - - - - ESE 22 28 12 15 1016.8 - -
19/12:30am 21.3 - - - - ESE 24 28 13 15 1017.3 - -
19/12:29am 21.2 - - - - ESE 24 - 13 - - 1017.4 -
19/12:00am 21.4 - - - - ESE 30 33 16 18 1017.4 - -
 
Date/Time
EST
Temp
°C
App
Temp
°C
Dew
Point
°C
Rel
Hum
%
Delta-T
°C
Wind Press
QNH
hPa
Press
MSL
hPa
Rain since
9am
mm
Dir  Spd
km/h
Gust
km/h
Spd
kts
Gust
kts
18/11:30pm 21.4 - - - - E 32 37 17 20 1017.4 - -
18/11:29pm 21.5 - - - - E 32 - 17 - - 1017.5 -
18/11:00pm 21.5 - - - - E 33 37 18 20 1017.6 - -
18/10:30pm 21.6 - - - - E 32 35 17 19 1017.8 - -
18/10:29pm 21.6 - - - - E 32 - 17 - - 1017.9 -
18/10:00pm 21.7 - - - - ESE 28 33 15 18 1017.9 - -
18/09:30pm 21.5 - - - - ESE 26 32 14 17 1017.9 - -
18/09:29pm 21.5 - - - - ESE 26 - 14 - - 1018.0 -
18/09:00pm 21.6 - - - - ESE 24 30 13 16 1018.0 - -
18/08:30pm 21.4 - - - - ESE 28 33 15 18 1018.1 - -
18/08:29pm 21.5 - - - - ESE 28 - 15 - - 1018.2 -
18/08:00pm 21.4 - - - - SE 30 35 16 19 1017.7 - -
18/07:30pm 21.5 - - - - SE 30 33 16 18 1017.4 - -
18/07:29pm 21.4 - - - - SE 30 - 16 - - 1017.5 -
18/07:00pm 21.5 - - - - SE 30 35 16 19 1017.3 - -
18/06:30pm 21.5 - - - - SE 24 30 13 16 1017.1 - -
18/06:29pm 21.4 - - - - SE 26 - 14 - - 1017.2 -

Other Formats:

Comma delimited format used in spreadsheet applications
http://www.bom.gov.au/fwo/IDQ60801/IDQ60801.94379.axf

JavaScript Object Notation format (JSON) in row-major order
http://www.bom.gov.au/fwo/IDQ60801/IDQ60801.94379.json